Time;durP1;ratioP1;P1;durP2;ratioP2;P2;SDS_P1;SDS_P2;PMS_P1;PMS_P2;Temp;Humidity;BMP_temperature;BMP_pressure;BME280_temperature;BME280_humidity;BME280_pressure;Samples;Min_cycle;Max_cycle;Signal;HPM_P1;HPM_P2
2023/11/14 00:00:32;;;;;;;3.97;1.77;;;;;;;;;;4977024;28;20419;-88
2023/11/14 00:02:58;;;;;;;3.33;2.08;;;;;;;;;;4992384;28;20452;-89
2023/11/14 00:05:24;;;;;;;4.75;2.15;;;;;;;;;;4979213;28;20389;-88
2023/11/14 00:07:53;;;;;;;2.00;1.80;;;;;;;;;;4995778;28;20381;-89
2023/11/14 00:10:22;;;;;;;2.25;2.05;;;14.30;99.90;;;;;;4993808;28;20388;-89
2023/11/14 00:12:48;;;;;;;2.97;1.65;;;;;;;;;;4992353;28;20431;-88
2023/11/14 00:15:14;;;;;;;1.98;1.77;;;;;;;;;;4975777;28;21066;-89
2023/11/14 00:17:40;;;;;;;3.60;1.90;;;14.70;99.90;;;;;;4985034;28;20400;-88
2023/11/14 00:20:07;;;;;;;4.75;2.15;;;13.90;99.90;;;;;;4988819;28;20776;-88
2023/11/14 00:22:33;;;;;;;3.67;2.00;;;;;;;;;;4976702;28;20404;-88
2023/11/14 00:25:00;;;;;;;3.17;2.30;;;;;;;;;;4975611;28;20531;-88
2023/11/14 00:27:26;;;;;;;3.60;2.13;;;;;;;;;;4976196;28;20395;-88
2023/11/14 00:29:52;;;;;;;3.50;2.17;;;14.30;99.90;;;;;;4976170;28;20388;-88
2023/11/14 00:32:17;;;;;;;3.10;2.00;;;14.20;99.90;;;;;;4977245;28;20920;-90
2023/11/14 00:34:43;;;;;;;1.90;1.60;;;;;;;;;;4976439;28;20482;-88
2023/11/14 00:37:14;;;;;;;2.53;2.28;;;14.20;99.90;;;;;;4976987;28;20380;-88
2023/11/14 00:39:47;;;;;;;2.88;2.20;;;14.20;99.90;;;;;;4975351;28;20402;-89
2023/11/14 00:42:13;;;;;;;2.30;1.55;;;;;;;;;;4975779;28;20400;-89
2023/11/14 00:44:42;;;;;;;3.15;1.40;;;;;;;;;;4988630;28;20496;-87
2023/11/14 00:47:08;;;;;;;1.63;1.30;;;;;;;;;;4996210;28;20383;-89
2023/11/14 00:49:36;;;;;;;1.93;0.93;;;;;;;;;;4996252;28;20401;-87
2023/11/14 00:52:03;;;;;;;4.30;1.10;;;;;;;;;;4996391;28;20571;-90
2023/11/14 00:54:38;;;;;;;1.15;0.88;;;;;;;;;;4984545;28;20519;-91
2023/11/14 00:57:14;;;;;;;1.50;0.75;;;;;;;;;;4991896;28;20390;-92
2023/11/14 00:59:56;;;;;;;1.60;0.90;;;;;;;;;;4983532;28;20392;-90
2023/11/14 01:03:00;;;;;;;1.30;0.80;;;;;;;;;;4976774;28;20408;-91
2023/11/14 01:05:26;;;;;;;1.40;0.60;;;;;;;;;;4956856;28;20477;-89
2023/11/14 01:07:59;;;;;;;1.58;0.70;;;;;;;;;;4956408;28;20389;-90
2023/11/14 01:10:28;;;;;;;3.00;1.00;;;;;;;;;;4957949;28;20453;-90
2023/11/14 01:13:09;;;;;;;2.45;0.70;;;;;;;;;;4965494;28;20489;-88
2023/11/14 01:15:35;;;;;;;1.00;0.52;;;;;;;;;;4995548;28;20538;-89
2023/11/14 01:18:03;;;;;;;1.67;0.60;;;;;;;;;;4995242;28;20390;-88
2023/11/14 01:20:29;;;;;;;0.90;0.70;;;;;;;;;;4994141;28;20383;-88
2023/11/14 01:22:55;;;;;;;1.45;0.90;;;;;;;;;;4987305;28;20387;-88
2023/11/14 01:25:21;;;;;;;1.20;0.60;;;12.80;1.00;;;;;;4993436;28;20394;-88
2023/11/14 01:27:47;;;;;;;1.60;0.90;;;12.70;1.00;;;;;;4992147;28;20481;-88
2023/11/14 01:30:13;;;;;;;0.50;0.50;;;13.00;7.10;;;;;;4993811;28;20774;-87
2023/11/14 01:32:39;;;;;;;0.50;0.50;;;;;;;;;;4993621;28;20783;-87
2023/11/14 01:35:05;;;;;;;0.93;0.60;;;12.60;1.00;;;;;;4974709;28;20770;-88
2023/11/14 01:37:32;;;;;;;2.35;0.70;;;12.80;1.00;;;;;;4974858;28;20396;-87
2023/11/14 01:39:58;;;;;;;1.83;0.60;;;12.90;14.10;;;;;;4980789;28;20392;-88
2023/11/14 01:42:23;;;;;;;0.80;0.60;;;12.40;64.90;;;;;;4995859;28;20392;-88
2023/11/14 01:44:49;;;;;;;1.30;0.60;;;12.70;99.90;;;;;;4996596;28;20411;-88
2023/11/14 01:47:15;;;;;;;1.00;0.50;;;12.30;80.80;;;;;;4997505;28;20635;-87
2023/11/14 01:49:42;;;;;;;1.75;0.52;;;12.80;1.00;;;;;;4977253;28;20896;-87
2023/11/14 01:52:08;;;;;;;1.13;0.50;;;11.30;1.00;;;;;;4973820;28;20780;-88
2023/11/14 01:54:34;;;;;;;1.52;0.50;;;12.20;1.90;;;;;;4974081;28;20412;-88
2023/11/14 01:57:00;;;;;;;1.30;0.45;;;11.40;22.00;;;;;;4975044;28;20457;-87
2023/11/14 01:59:26;;;;;;;1.38;0.70;;;12.20;1.80;;;;;;4973813;28;20392;-87
2023/11/14 02:01:52;;;;;;;1.13;0.70;;;12.40;1.00;;;;;;4984435;28;20394;-87
2023/11/14 02:04:21;;;;;;;0.70;0.50;;;12.50;1.00;;;;;;4994246;28;20450;-87
2023/11/14 02:06:50;;;;;;;1.40;0.60;;;12.30;1.00;;;;;;4994171;28;20503;-88
2023/11/14 02:09:15;;;;;;;1.50;0.70;;;11.60;1.00;;;;;;4993650;28;20700;-90
2023/11/14 02:11:44;;;;;;;1.33;0.70;;;12.20;11.10;;;;;;4992740;28;20398;-87
2023/11/14 02:14:11;;;;;;;0.88;0.50;;;11.90;54.10;;;;;;5012874;23;20422;-87
2023/11/14 02:16:53;;;;;;;0.80;0.65;;;12.50;48.60;;;;;;4976751;28;20391;-88
2023/11/14 02:19:19;;;;;;;1.60;0.60;;;;;;;;;;4972334;28;20402;-89
2023/11/14 02:21:46;;;;;;;1.80;0.70;;;;;;;;;;4993828;28;20859;-90
2023/11/14 02:24:16;;;;;;;1.13;0.60;;;12.20;89.20;;;;;;4969338;28;20432;-88
2023/11/14 02:26:45;;;;;;;1.13;0.70;;;11.90;69.50;;;;;;4973678;28;20873;-88
2023/11/14 02:29:17;;;;;;;1.80;0.60;;;12.10;74.70;;;;;;4957107;28;20414;-89
2023/11/14 02:31:43;;;;;;;1.20;0.70;;;12.10;75.40;;;;;;4958342;28;20797;-89
2023/11/14 02:34:10;;;;;;;2.03;0.90;;;;;;;;;;4975097;28;20411;-89
2023/11/14 02:36:37;;;;;;;0.90;0.80;;;;;;;;;;4975336;28;20826;-89
2023/11/14 02:39:03;;;;;;;2.20;0.70;;;12.00;99.90;;;;;;4956480;28;20451;-89
2023/11/14 02:41:29;;;;;;;2.05;0.70;;;;;;;;;;4974572;28;20380;-89
2023/11/14 02:43:57;;;;;;;1.63;1.00;;;12.20;99.90;;;;;;4956236;28;20889;-88
2023/11/14 02:46:23;;;;;;;2.20;0.80;;;;;;;;;;4972583;28;20463;-88
2023/11/14 02:48:48;;;;;;;2.17;0.75;;;12.10;99.90;;;;;;4957057;28;20800;-89
2023/11/14 02:51:15;;;;;;;1.73;0.80;;;;;;;;;;4974757;28;20888;-89
2023/11/14 02:53:41;;;;;;;1.67;0.95;;;12.00;99.90;;;;;;4956480;28;20444;-89
2023/11/14 02:56:07;;;;;;;1.77;0.73;;;;;;;;;;4973375;28;20444;-88
2023/11/14 02:58:33;;;;;;;0.77;0.60;;;;;;;;;;4973941;28;20451;-88
2023/11/14 03:00:59;;;;;;;2.08;1.10;;;;;;;;;;4962566;28;20396;-88
2023/11/14 03:03:25;;;;;;;1.70;0.90;;;;;;;;;;4961824;28;20392;-89
2023/11/14 03:05:50;;;;;;;0.90;0.60;;;12.00;99.90;;;;;;4972943;28;20391;-88
2023/11/14 03:08:16;;;;;;;1.60;0.60;;;11.90;99.90;;;;;;4973147;28;20392;-89
2023/11/14 03:10:43;;;;;;;1.40;0.70;;;12.00;99.90;;;;;;4955913;28;20404;-89
2023/11/14 03:13:09;;;;;;;1.00;0.50;;;;;;;;;;4955685;28;20408;-89
2023/11/14 03:15:36;;;;;;;1.30;0.50;;;;;;;;;;4972951;28;20446;-89
2023/11/14 03:18:02;;;;;;;1.90;0.60;;;;;;;;;;4956043;28;20401;-87
2023/11/14 03:20:28;;;;;;;0.82;0.43;;;12.40;98.90;;;;;;4975770;28;20472;-88
2023/11/14 03:22:55;;;;;;;0.80;0.50;;;;;;;;;;4975545;28;20415;-89
2023/11/14 03:25:24;;;;;;;1.50;0.60;;;12.40;96.90;;;;;;4956923;28;20392;-83
2023/11/14 03:27:50;;;;;;;1.00;0.60;;;12.30;97.60;;;;;;4956080;28;20400;-86
2023/11/14 03:30:18;;;;;;;0.50;0.40;;;;;;;;;;4955717;28;20422;-89
2023/11/14 03:32:44;;;;;;;0.90;0.40;;;12.50;8.20;;;;;;4958461;28;20416;-89
2023/11/14 03:35:10;;;;;;;1.00;0.30;;;;;;;;;;4958002;28;20416;-92
2023/11/14 03:37:36;;;;;;;1.30;0.30;;;;;;;;;;4956890;28;20480;-89
2023/11/14 03:40:03;;;;;;;1.00;0.60;;;12.10;1.00;;;;;;4974807;28;20384;-91
2023/11/14 03:42:29;;;;;;;2.10;0.40;;;;;;;;;;4957974;28;20388;-89
2023/11/14 03:44:54;;;;;;;0.60;0.40;;;11.70;1.00;;;;;;4955352;28;20419;-89
2023/11/14 03:47:20;;;;;;;1.90;0.40;;;;;;;;;;4958155;28;20400;-88
2023/11/14 03:49:46;;;;;;;1.10;0.50;;;;;;;;;;4958046;28;20869;-88
2023/11/14 03:52:14;;;;;;;1.30;0.50;;;;;;;;;;4973476;28;20940;-89
2023/11/14 03:54:46;;;;;;;0.88;0.40;;;;;;;;;;4955072;28;20931;-90
2023/11/14 03:57:11;;;;;;;1.00;0.30;;;11.70;1.00;;;;;;4955563;28;20411;-87
2023/11/14 03:59:37;;;;;;;1.10;0.60;;;;;;;;;;4955924;28;20388;-90
2023/11/14 04:02:03;;;;;;;0.95;0.50;;;11.70;1.00;;;;;;4956360;28;20751;-90
2023/11/14 04:04:29;;;;;;;0.77;0.50;;;;;;;;;;4958789;28;20388;-89
2023/11/14 04:06:55;;;;;;;0.80;0.40;;;11.80;1.00;;;;;;4957632;28;20748;-90
2023/11/14 04:09:21;;;;;;;2.60;0.40;;;;;;;;;;4956720;28;20400;-89
2023/11/14 04:11:48;;;;;;;0.50;0.40;;;11.70;1.00;;;;;;4970002;28;20801;-89
2023/11/14 04:14:15;;;;;;;0.98;0.40;;;;;;;;;;4962442;28;20443;-91
2023/11/14 04:16:41;;;;;;;0.60;0.50;;;;;;;;;;4963795;28;20494;-90
2023/11/14 04:19:07;;;;;;;0.70;0.40;;;;;;;;;;4964667;28;20452;-91
2023/11/14 04:21:33;;;;;;;1.60;0.50;;;;;;;;;;4962733;28;20440;-90
2023/11/14 04:23:59;;;;;;;0.50;0.35;;;11.70;1.00;;;;;;4968249;28;20396;-88
2023/11/14 04:26:25;;;;;;;2.10;0.50;;;;;;;;;;4967549;28;20832;-93
2023/11/14 04:28:51;;;;;;;0.60;0.50;;;;;;;;;;4964413;28;20442;-91
2023/11/14 04:31:17;;;;;;;0.80;0.30;;;11.60;1.00;;;;;;4958210;28;20876;-89
2023/11/14 04:33:43;;;;;;;0.80;0.30;;;11.90;1.00;;;;;;4956058;28;20436;-89
2023/11/14 04:36:09;;;;;;;0.80;0.50;;;11.90;1.00;;;;;;4955973;28;20427;-89
2023/11/14 04:38:35;;;;;;;0.90;0.40;;;;;;;;;;4957123;28;20908;-87
2023/11/14 04:41:01;;;;;;;0.60;0.40;;;11.80;1.00;;;;;;4961954;28;20392;-89
2023/11/14 04:43:27;;;;;;;1.70;0.50;;;;;;;;;;4977855;28;20540;-89
2023/11/14 04:45:53;;;;;;;0.50;0.40;;;11.60;1.00;;;;;;4980547;28;20420;-91
2023/11/14 04:48:18;;;;;;;1.30;0.50;;;11.40;1.00;;;;;;4980870;28;20392;-90
2023/11/14 04:50:45;;;;;;;0.90;0.45;;;11.30;1.00;;;;;;4980465;28;20400;-90
2023/11/14 04:53:11;;;;;;;2.50;0.40;;;;;;;;;;4960003;28;20979;-90
2023/11/14 04:55:37;;;;;;;1.27;0.57;;;;;;;;;;4958640;28;20456;-86
2023/11/14 04:58:03;;;;;;;2.23;0.40;;;11.10;1.00;;;;;;4974698;28;20730;-88
2023/11/14 05:00:29;;;;;;;1.80;0.60;;;11.10;1.00;;;;;;4956849;28;20407;-88
2023/11/14 05:02:55;;;;;;;1.85;0.60;;;10.90;1.00;;;;;;4977537;28;20400;-88
2023/11/14 05:05:21;;;;;;;1.00;0.60;;;;;;;;;;4962143;28;20459;-90
2023/11/14 05:07:47;;;;;;;1.05;0.60;;;10.90;1.00;;;;;;4961966;28;20396;-89
2023/11/14 05:10:13;;;;;;;0.80;0.40;;;10.90;1.00;;;;;;4960527;28;20431;-86
2023/11/14 05:12:39;;;;;;;1.50;0.60;;;11.00;1.00;;;;;;4960930;28;20746;-88
2023/11/14 05:15:07;;;;;;;2.30;0.40;;;11.00;1.00;;;;;;4976400;28;20492;-85
2023/11/14 05:17:33;;;;;;;0.90;0.60;;;10.90;1.00;;;;;;4970741;28;20408;-88
2023/11/14 05:19:59;;;;;;;1.45;0.57;;;10.80;1.00;;;;;;4999697;28;20396;-89
2023/11/14 05:22:25;;;;;;;3.10;0.70;;;;;;;;;;4980633;28;20377;-86
2023/11/14 05:24:51;;;;;;;1.40;0.70;;;;;;;;;;4959215;28;20949;-89
2023/11/14 05:27:16;;;;;;;1.75;0.60;;;11.20;1.00;;;;;;4971344;28;20376;-87
2023/11/14 05:29:43;;;;;;;3.70;0.60;;;10.70;1.00;;;;;;4982119;28;20408;-88
2023/11/14 05:32:10;;;;;;;2.60;0.70;;;10.60;1.00;;;;;;4960491;28;20822;-87
2023/11/14 05:34:35;;;;;;;2.30;1.02;;;10.90;1.00;;;;;;4975579;28;20784;-86
2023/11/14 05:37:01;;;;;;;2.80;0.90;;;11.00;1.00;;;;;;4974056;28;20432;-84
2023/11/14 05:39:27;;;;;;;2.60;0.77;;;11.00;1.00;;;;;;4958186;28;20393;-87
2023/11/14 05:41:52;;;;;;;1.52;0.60;;;11.00;1.00;;;;;;4976756;28;20388;-84
2023/11/14 05:44:18;;;;;;;0.85;0.60;;;10.80;1.00;;;;;;4975145;28;20462;-86
2023/11/14 05:46:44;;;;;;;1.40;0.75;;;11.10;1.00;;;;;;4974963;28;20410;-87
2023/11/14 05:49:10;;;;;;;2.00;0.60;;;10.90;1.00;;;;;;4980744;28;20400;-85
2023/11/14 05:51:36;;;;;;;3.33;0.80;;;11.40;1.00;;;;;;4959264;28;20400;-86
2023/11/14 05:54:01;;;;;;;2.30;1.20;;;11.10;1.00;;;;;;4961000;28;20408;-88
2023/11/14 05:56:27;;;;;;;4.10;0.90;;;10.50;1.00;;;;;;4962347;28;20761;-86
2023/11/14 05:58:52;;;;;;;1.87;0.90;;;10.80;1.00;;;;;;4960955;28;20396;-87
2023/11/14 06:01:18;;;;;;;2.30;1.10;;;11.30;1.00;;;;;;4978541;28;20396;-86
2023/11/14 06:03:44;;;;;;;2.67;0.73;;;11.10;1.00;;;;;;4975840;28;20777;-86
2023/11/14 06:06:10;;;;;;;1.45;0.50;;;11.00;1.00;;;;;;4975254;28;20491;-87
2023/11/14 06:08:35;;;;;;;2.30;0.70;;;10.80;1.00;;;;;;4965129;28;20402;-87
2023/11/14 06:11:01;;;;;;;3.20;0.70;;;11.20;1.00;;;;;;4979752;28;20404;-87
2023/11/14 06:13:27;;;;;;;2.15;0.65;;;11.10;1.00;;;;;;4971178;28;20438;-87
2023/11/14 06:15:53;;;;;;;1.80;0.53;;;11.10;1.00;;;;;;4981635;28;20789;-87
2023/11/14 06:18:19;;;;;;;3.70;0.70;;;;;;;;;;4962870;28;20402;-87
2023/11/14 06:20:45;;;;;;;2.33;0.80;;;11.10;1.00;;;;;;4967308;28;20415;-86
2023/11/14 06:23:11;;;;;;;3.53;0.77;;;;;;;;;;4975708;28;20436;-89
2023/11/14 06:25:36;;;;;;;2.30;0.80;;;11.20;1.00;;;;;;4972769;28;20393;-88
2023/11/14 06:28:02;;;;;;;2.38;0.90;;;11.30;1.00;;;;;;4995930;28;20398;-86
2023/11/14 06:30:27;;;;;;;2.50;0.65;;;11.30;1.00;;;;;;4981700;28;20474;-86
2023/11/14 06:32:53;;;;;;;1.93;0.80;;;10.90;1.00;;;;;;4979593;28;20390;-85
2023/11/14 06:35:18;;;;;;;1.67;1.00;;;11.30;1.00;;;;;;4975184;28;20412;-85
2023/11/14 06:37:44;;;;;;;2.93;1.27;;;10.60;1.00;;;;;;4975183;28;20479;-86
2023/11/14 06:40:11;;;;;;;2.40;0.50;;;10.90;1.00;;;;;;4958811;28;20430;-88
2023/11/14 06:42:38;;;;;;;3.55;0.75;;;11.30;1.00;;;;;;4958328;28;20451;-85
2023/11/14 06:45:05;;;;;;;2.53;0.60;;;11.10;1.00;;;;;;4974427;28;20488;-87
2023/11/14 06:47:31;;;;;;;4.20;0.80;;;11.30;1.00;;;;;;4983259;28;20415;-85
2023/11/14 06:49:57;;;;;;;3.00;0.80;;;11.10;1.00;;;;;;4963015;28;20443;-84
2023/11/14 06:52:22;;;;;;;1.88;0.60;;;10.40;1.00;;;;;;4979588;28;20396;-86
2023/11/14 06:54:50;;;;;;;1.87;0.60;;;11.40;1.00;;;;;;4975632;28;20429;-87
2023/11/14 06:57:16;;;;;;;1.10;0.80;;;11.20;1.00;;;;;;4977270;28;20404;-85
2023/11/14 06:59:41;;;;;;;2.85;0.75;;;11.40;1.00;;;;;;4977951;28;20400;-84
2023/11/14 07:02:08;;;;;;;2.83;0.70;;;11.50;1.00;;;;;;4959595;28;20401;-85
2023/11/14 07:04:37;;;;;;;3.03;1.00;;;11.10;1.00;;;;;;4979840;28;20480;-86
2023/11/14 07:07:03;;;;;;;2.42;0.80;;;10.60;1.00;;;;;;4960936;28;20406;-85
2023/11/14 07:09:29;;;;;;;0.73;0.47;;;11.40;1.00;;;;;;4975580;28;20396;-86
2023/11/14 07:11:54;;;;;;;1.77;0.77;;;11.50;1.00;;;;;;4975999;28;20765;-86
2023/11/14 07:14:22;;;;;;;2.10;1.13;;;11.60;1.00;;;;;;4964865;28;20767;-85
2023/11/14 07:16:48;;;;;;;2.00;0.70;;;10.90;1.00;;;;;;4980117;28;20391;-84
2023/11/14 07:19:14;;;;;;;4.10;1.00;;;11.30;1.00;;;;;;4980173;28;20388;-86
2023/11/14 07:21:41;;;;;;;2.25;1.10;;;11.40;1.00;;;;;;4962944;28;20457;-86
2023/11/14 07:24:07;;;;;;;2.80;0.60;;;11.60;1.00;;;;;;4976424;28;20952;-85
2023/11/14 07:26:33;;;;;;;1.90;0.73;;;11.60;1.00;;;;;;4998970;28;21091;-85
2023/11/14 07:28:58;;;;;;;1.08;0.70;;;11.60;1.00;;;;;;4986788;28;20394;-85
2023/11/14 07:31:24;;;;;;;1.50;0.50;;;12.40;1.00;;;;;;4988541;28;20448;-89
2023/11/14 07:33:50;;;;;;;1.50;0.60;;;11.70;1.00;;;;;;4989458;28;20443;-85
2023/11/14 07:36:16;;;;;;;2.67;0.73;;;11.50;1.00;;;;;;4983871;28;20396;-85
2023/11/14 07:38:44;;;;;;;0.90;0.60;;;11.20;1.00;;;;;;4994512;28;20400;-84
2023/11/14 07:41:12;;;;;;;1.40;0.60;;;11.00;1.00;;;;;;4998481;28;20402;-85
2023/11/14 07:43:39;;;;;;;2.15;0.80;;;11.70;1.00;;;;;;4987053;28;20925;-85
2023/11/14 07:46:05;;;;;;;3.00;0.77;;;11.60;1.00;;;;;;4984997;28;20484;-84
2023/11/14 07:48:31;;;;;;;2.80;0.90;;;12.30;1.00;;;;;;4988947;28;20483;-85
2023/11/14 07:50:57;;;;;;;3.40;1.10;;;11.40;1.00;;;;;;4985118;28;20438;-85
2023/11/14 07:53:24;;;;;;;1.00;0.50;;;11.50;1.00;;;;;;4998057;28;20388;-84
2023/11/14 07:55:49;;;;;;;2.53;0.80;;;11.70;1.00;;;;;;4997808;28;20435;-82
2023/11/14 07:58:15;;;;;;;1.23;0.67;;;11.90;1.00;;;;;;4997752;28;20407;-84
2023/11/14 08:00:41;;;;;;;2.90;0.90;;;11.80;1.00;;;;;;5001582;28;20388;-84
2023/11/14 08:03:06;;;;;;;3.07;1.03;;;11.70;1.00;;;;;;4980655;28;20464;-81
2023/11/14 08:05:33;;;;;;;1.50;0.80;;;11.90;1.00;;;;;;4986769;28;20474;-83
2023/11/14 08:07:59;;;;;;;2.33;0.85;;;11.90;1.00;;;;;;4983417;28;20412;-84
2023/11/14 08:10:24;;;;;;;4.25;0.90;;;12.80;1.00;;;;;;4991439;28;20419;-83
2023/11/14 08:12:50;;;;;;;3.58;0.90;;;11.90;1.00;;;;;;5004064;28;20406;-83
2023/11/14 08:15:16;;;;;;;2.43;0.97;;;11.90;1.00;;;;;;4982897;28;20419;-85
2023/11/14 08:17:42;;;;;;;2.60;0.80;;;11.80;1.00;;;;;;4979187;28;20396;-84
2023/11/14 08:20:09;;;;;;;4.28;1.20;;;11.40;1.00;;;;;;4981287;28;20388;-85
2023/11/14 08:22:35;;;;;;;1.23;0.60;;;12.10;1.00;;;;;;4984873;28;20420;-84
2023/11/14 08:25:01;;;;;;;2.08;1.05;;;12.10;1.00;;;;;;4977191;28;20486;-84
2023/11/14 08:27:30;;;;;;;0.85;0.60;;;12.10;1.00;;;;;;4993965;28;20388;-84
2023/11/14 08:29:56;;;;;;;1.92;1.05;;;12.10;1.00;;;;;;4991746;28;20389;-83
2023/11/14 08:32:23;;;;;;;1.10;0.90;;;11.90;1.00;;;;;;4964054;28;20475;-84
2023/11/14 08:34:49;;;;;;;2.17;0.77;;;12.20;1.00;;;;;;4980410;28;20407;-84
2023/11/14 08:37:14;;;;;;;2.42;1.00;;;11.50;1.00;;;;;;4982992;28;20423;-84
2023/11/14 08:39:40;;;;;;;3.40;1.00;;;11.30;1.00;;;;;;4982510;28;20443;-84
2023/11/14 08:42:11;;;;;;;3.07;0.70;;;12.20;1.00;;;;;;4984505;28;20395;-84
2023/11/14 08:44:40;;;;;;;3.35;0.77;;;12.50;1.00;;;;;;4983193;28;20476;-85
2023/11/14 08:47:06;;;;;;;2.75;0.98;;;12.40;1.00;;;;;;4987441;28;20891;-84
2023/11/14 08:49:32;;;;;;;2.55;0.80;;;12.40;1.00;;;;;;4990446;28;20789;-84
2023/11/14 08:51:57;;;;;;;3.47;0.90;;;12.40;1.00;;;;;;4987327;28;20403;-85
2023/11/14 08:54:23;;;;;;;1.20;0.80;;;12.50;1.00;;;;;;4981705;28;21019;-88
2023/11/14 08:56:48;;;;;;;2.20;0.80;;;11.20;1.00;;;;;;4983877;28;20394;-86
2023/11/14 08:59:15;;;;;;;2.42;0.70;;;12.30;1.00;;;;;;4966064;28;20431;-85
2023/11/14 09:01:41;;;;;;;2.47;0.85;;;12.30;1.00;;;;;;4983206;28;20472;-87
2023/11/14 09:04:10;;;;;;;2.70;0.95;;;12.40;1.00;;;;;;4967132;28;20395;-84
2023/11/14 09:06:36;;;;;;;3.70;1.27;;;12.20;1.00;;;;;;4968331;28;20510;-84
2023/11/14 09:09:02;;;;;;;2.63;0.90;;;12.30;1.00;;;;;;4985081;28;20403;-84
2023/11/14 09:11:27;;;;;;;2.70;0.93;;;12.60;1.00;;;;;;4985677;28;20452;-82
2023/11/14 09:13:56;;;;;;;4.03;0.83;;;12.50;1.00;;;;;;4985410;28;20496;-84
2023/11/14 09:16:23;;;;;;;3.00;0.70;;;12.50;1.00;;;;;;4967966;28;20391;-85
2023/11/14 09:18:48;;;;;;;2.80;1.00;;;12.50;1.00;;;;;;4982421;28;20396;-85
2023/11/14 09:21:14;;;;;;;1.85;0.60;;;12.50;1.00;;;;;;4982735;28;20393;-84
2023/11/14 09:23:40;;;;;;;1.83;0.80;;;12.50;1.00;;;;;;4983533;28;20380;-82
2023/11/14 09:26:07;;;;;;;4.70;0.83;;;12.50;1.00;;;;;;4984271;28;20486;-84
2023/11/14 09:28:34;;;;;;;2.40;0.80;;;12.50;1.00;;;;;;4966533;28;20384;-85
2023/11/14 09:31:02;;;;;;;5.80;1.30;;;12.60;1.00;;;;;;4983804;28;20484;-84
2023/11/14 09:33:27;;;;;;;2.33;0.80;;;12.60;1.00;;;;;;4984296;28;20381;-84
2023/11/14 09:35:53;;;;;;;2.83;1.20;;;11.90;1.00;;;;;;4966193;28;20447;-85
2023/11/14 09:38:19;;;;;;;2.80;1.20;;;12.20;1.00;;;;;;4984257;28;20443;-85
2023/11/14 09:40:45;;;;;;;3.13;0.93;;;12.40;1.00;;;;;;4983749;28;20424;-85
2023/11/14 09:43:11;;;;;;;1.75;0.70;;;12.50;1.00;;;;;;4982982;28;20392;-85
2023/11/14 09:45:41;;;;;;;3.05;0.60;;;12.60;1.00;;;;;;4964767;28;20999;-84
2023/11/14 09:48:08;;;;;;;3.30;1.00;;;12.20;1.00;;;;;;4982373;28;20397;-85
2023/11/14 09:50:43;;;;;;;1.50;0.90;;;12.80;1.00;;;;;;4983483;28;20392;-85
2023/11/14 09:53:09;;;;;;;1.50;0.70;;;12.60;1.00;;;;;;4982790;28;20384;-85
2023/11/14 09:55:35;;;;;;;2.70;0.70;;;12.50;1.00;;;;;;4982898;28;20412;-84
2023/11/14 09:58:01;;;;;;;3.63;1.00;;;12.10;1.00;;;;;;4981564;28;20392;-85
2023/11/14 10:00:30;;;;;;;1.33;0.80;;;12.30;1.00;;;;;;4963760;28;20486;-84
2023/11/14 10:02:57;;;;;;;2.10;0.95;;;12.80;1.00;;;;;;4980959;28;20396;-86
2023/11/14 10:05:23;;;;;;;1.60;0.80;;;12.90;1.00;;;;;;4980207;28;20892;-86
2023/11/14 10:07:54;;;;;;;1.90;0.80;;;12.80;1.00;;;;;;4981219;28;20403;-84
2023/11/14 10:10:20;;;;;;;3.00;0.70;;;12.50;1.00;;;;;;4981538;28;20423;-85
2023/11/14 10:12:46;;;;;;;1.50;0.80;;;12.80;1.00;;;;;;4980081;28;20392;-85
2023/11/14 10:15:12;;;;;;;1.53;0.90;;;12.80;1.00;;;;;;4980056;28;20408;-84
2023/11/14 10:17:45;;;;;;;3.13;0.70;;;12.10;1.00;;;;;;4964837;28;20758;-85
2023/11/14 10:20:17;;;;;;;2.92;0.80;;;12.80;1.00;;;;;;4965543;28;20494;-85
2023/11/14 10:22:47;;;;;;;3.77;0.70;;;12.80;1.00;;;;;;4981348;28;20479;-84
2023/11/14 10:25:28;;;;;;;1.98;0.60;;;12.90;1.00;;;;;;4968170;28;20400;-84
2023/11/14 10:28:04;;;;;;;2.00;0.60;;;12.90;1.00;;;;;;4983849;28;20900;-84
2023/11/14 10:30:42;;;;;;;1.90;0.73;;;12.90;1.00;;;;;;4969207;28;20407;-85
2023/11/14 10:33:08;;;;;;;2.75;0.90;;;12.80;1.00;;;;;;4982590;28;20388;-83
2023/11/14 10:35:33;;;;;;;2.38;0.50;;;12.40;1.00;;;;;;4963203;28;20460;-85
2023/11/14 10:38:16;;;;;;;2.80;0.70;;;13.10;1.00;;;;;;4983913;28;20403;-85
2023/11/14 10:40:51;;;;;;;2.90;0.60;;;13.00;1.00;;;;;;4982725;28;20455;-86
2023/11/14 10:43:31;;;;;;;3.25;0.88;;;13.00;1.00;;;;;;4985767;28;20393;-85
2023/11/14 10:45:59;;;;;;;3.67;0.80;;;12.50;1.00;;;;;;4990739;28;20387;-84
2023/11/14 10:48:26;;;;;;;2.67;1.10;;;13.00;1.00;;;;;;4991207;28;20396;-85
2023/11/14 10:50:52;;;;;;;2.50;0.93;;;13.00;1.00;;;;;;4990615;28;20396;-86
2023/11/14 10:53:18;;;;;;;1.42;0.60;;;12.90;1.00;;;;;;4982433;28;20387;-85
2023/11/14 10:55:46;;;;;;;1.80;0.60;;;12.90;1.00;;;;;;4965338;28;20435;-85
2023/11/14 10:58:13;;;;;;;4.68;0.80;;;12.90;1.00;;;;;;4982379;28;20880;-85
2023/11/14 11:00:40;;;;;;;1.23;0.80;;;12.90;1.00;;;;;;4981419;28;20391;-87
2023/11/14 11:03:06;;;;;;;1.77;0.60;;;13.00;1.00;;;;;;4965003;28;20473;-84
2023/11/14 11:05:32;;;;;;;2.15;1.00;;;13.00;1.00;;;;;;4964942;28;20446;-83
2023/11/14 11:08:02;;;;;;;1.90;0.60;;;12.80;1.00;;;;;;4983339;28;20392;-85
2023/11/14 11:10:48;;;;;;;1.70;0.60;;;12.70;1.00;;;;;;4982039;28;20392;-84
2023/11/14 11:13:20;;;;;;;1.90;0.93;;;13.10;1.00;;;;;;4982858;28;20384;-84
2023/11/14 11:15:48;;;;;;;3.72;0.68;;;13.10;1.00;;;;;;4985317;28;20416;-84
2023/11/14 11:18:14;;;;;;;1.40;0.50;;;13.10;1.00;;;;;;4986428;28;20400;-84
2023/11/14 11:20:41;;;;;;;2.00;0.93;;;13.10;1.00;;;;;;4971396;28;20900;-83
2023/11/14 11:23:12;;;;;;;1.27;0.75;;;13.20;1.00;;;;;;4964279;28;20411;-84
2023/11/14 11:25:41;;;;;;;1.58;1.00;;;13.20;1.00;;;;;;4979179;28;20398;-83
2023/11/14 11:28:19;;;;;;;1.80;0.80;;;12.60;1.00;;;;;;4981430;28;20396;-84
2023/11/14 11:31:07;;;;;;;2.20;0.80;;;13.70;1.00;;;;;;4979253;28;20388;-84
2023/11/14 11:33:41;;;;;;;2.25;1.08;;;13.10;1.00;;;;;;4979286;28;20396;-84
2023/11/14 11:36:25;;;;;;;2.63;0.95;;;13.10;1.00;;;;;;4981572;28;20483;-85
2023/11/14 11:39:00;;;;;;;2.70;0.70;;;12.70;1.00;;;;;;4981802;28;20380;-84
2023/11/14 11:41:27;;;;;;;2.78;0.80;;;13.10;1.00;;;;;;4983944;28;20376;-84
2023/11/14 11:44:06;;;;;;;2.38;0.60;;;13.30;1.00;;;;;;4964340;28;20396;-84
2023/11/14 11:46:45;;;;;;;2.47;0.90;;;13.10;1.00;;;;;;4962776;28;20402;-84
2023/11/14 11:49:11;;;;;;;1.35;0.70;;;13.00;1.00;;;;;;4980552;28;20388;-86
2023/11/14 11:51:43;;;;;;;1.42;0.77;;;13.00;1.00;;;;;;4981217;28;20452;-85
2023/11/14 11:54:28;;;;;;;3.15;0.60;;;;;;;;;;4980384;28;20421;-84
2023/11/14 11:57:12;;;;;;;3.78;0.88;;;12.80;1.00;;;;;;4980962;28;20543;-85
2023/11/14 11:59:43;;;;;;;1.80;1.33;;;14.10;1.00;;;;;;4979959;28;20411;-84
2023/11/14 12:02:17;;;;;;;1.90;0.73;;;12.20;1.00;;;;;;4981404;28;20399;-85
2023/11/14 12:04:44;;;;;;;4.18;0.98;;;11.90;1.00;;;;;;4989171;28;20451;-84
2023/11/14 12:07:10;;;;;;;1.92;1.10;;;11.20;1.00;;;;;;4990587;28;20392;-82
2023/11/14 12:09:37;;;;;;;1.70;1.00;;;11.90;1.00;;;;;;4990145;28;20471;-84
2023/11/14 12:12:02;;;;;;;3.28;0.68;;;11.80;1.00;;;;;;4969937;28;20423;-84
2023/11/14 12:14:29;;;;;;;1.88;0.90;;;11.30;1.00;;;;;;4984502;28;20416;-85
2023/11/14 12:16:55;;;;;;;2.97;0.90;;;11.30;1.00;;;;;;4983274;28;20408;-87
2023/11/14 12:19:21;;;;;;;1.80;0.70;;;10.20;1.00;;;;;;4989632;28;20388;-85
2023/11/14 12:21:47;;;;;;;2.70;1.10;;;10.50;1.00;;;;;;4972908;28;20393;-87
2023/11/14 12:24:14;;;;;;;2.10;0.90;;;10.70;1.00;;;;;;4988172;28;20467;-87
2023/11/14 12:26:39;;;;;;;4.70;1.23;;;10.50;1.00;;;;;;4978069;28;20392;-87
2023/11/14 12:29:10;;;;;;;3.23;1.00;;;10.50;1.00;;;;;;4961479;28;20450;-87
2023/11/14 12:31:36;;;;;;;3.10;0.90;;;10.20;1.00;;;;;;4960353;28;20815;-85
2023/11/14 12:34:04;;;;;;;3.42;1.08;;;10.20;1.00;;;;;;4977982;28;20440;-85
2023/11/14 12:36:30;;;;;;;2.90;1.10;;;10.00;1.00;;;;;;4979865;28;20396;-86
2023/11/14 12:39:11;;;;;;;2.08;1.00;;;12.60;1.00;;;;;;4976913;28;20392;-87
2023/11/14 12:41:43;;;;;;;1.60;1.00;;;10.20;1.00;;;;;;4962104;28;20423;-86
2023/11/14 12:44:09;;;;;;;4.30;1.20;;;10.00;1.00;;;;;;4959684;28;20399;-87
2023/11/14 12:46:36;;;;;;;3.08;0.82;;;9.90;1.00;;;;;;4960879;28;20820;-85
2023/11/14 12:49:16;;;;;;;2.50;0.68;;;9.90;1.00;;;;;;4979586;28;20442;-85
2023/11/14 12:51:47;;;;;;;2.80;1.20;;;10.00;1.00;;;;;;4978776;28;20466;-84
2023/11/14 12:54:17;;;;;;;3.35;1.00;;;10.00;1.00;;;;;;4960314;28;20412;-84
2023/11/14 12:56:43;;;;;;;2.25;1.00;;;10.00;1.00;;;;;;4980361;28;20856;-85
2023/11/14 12:59:09;;;;;;;4.32;1.20;;;9.90;1.00;;;;;;4979660;28;20455;-85
2023/11/14 13:01:37;;;;;;;3.20;1.17;;;9.90;1.00;;;;;;4968557;28;20480;-82
2023/11/14 13:04:06;;;;;;;2.10;1.00;;;9.90;1.00;;;;;;4985798;28;20400;-83
2023/11/14 13:06:54;;;;;;;2.93;1.20;;;9.90;1.00;;;;;;4964643;28;20424;-83
2023/11/14 13:09:20;;;;;;;4.55;1.48;;;9.80;1.00;;;;;;4964889;28;20392;-84
2023/11/14 13:11:45;;;;;;;3.13;1.00;;;9.80;1.00;;;;;;4980393;28;20400;-83
2023/11/14 13:14:12;;;;;;;1.40;0.80;;;9.90;1.00;;;;;;4982659;28;20412;-84
2023/11/14 13:16:38;;;;;;;4.88;1.10;;;9.80;1.00;;;;;;4965550;28;20475;-85
2023/11/14 13:19:04;;;;;;;3.17;1.10;;;9.20;1.00;;;;;;4981463;28;21008;-85